Time;durP1;ratioP1;P1;durP2;ratioP2;P2;SDS_P1;SDS_P2;PMS_P1;PMS_P2;Temp;Humidity;BMP_temperature;BMP_pressure;BME280_temperature;BME280_humidity;BME280_pressure;Samples;Min_cycle;Max_cycle;Signal;HPM_P1;HPM_P2
2023/04/21 00:01:07;;;;;;;15.77;8.30;;;;;;;14.45;100.00;99174.25;31321574;28;20076;-76
2023/04/21 00:16:09;;;;;;;17.83;8.00;;;;;;;14.34;100.00;99166.56;31348989;28;20056;-77
2023/04/21 00:31:11;;;;;;;20.97;9.70;;;;;;;14.21;100.00;99160.59;31376792;28;20086;-79
2023/04/21 00:46:16;;;;;;;31.97;10.50;;;;;;;14.00;100.00;99152.22;31360179;28;20382;-78
2023/04/21 01:01:19;;;;;;;24.50;10.13;;;;;;;13.88;100.00;99155.19;31342955;28;20543;-78
2023/04/21 01:16:22;;;;;;;20.87;8.50;;;;;;;13.90;100.00;99133.66;31327682;28;20060;-79
2023/04/21 01:31:26;;;;;;;16.10;7.63;;;;;;;13.85;100.00;99118.69;31343676;28;20057;-78
2023/04/21 01:46:29;;;;;;;22.10;7.53;;;;;;;13.88;100.00;99123.22;31324060;28;20077;-77
2023/04/21 02:01:32;;;;;;;21.40;8.43;;;;;;;13.73;100.00;99122.38;31365028;28;20084;-89
2023/04/21 02:16:34;;;;;;;17.33;7.73;;;;;;;13.58;100.00;99099.72;31352255;28;20416;-89
2023/04/21 02:31:36;;;;;;;15.83;6.93;;;;;;;13.62;100.00;99086.69;31359684;28;20064;-90
2023/04/21 02:46:59;;;;;;;12.53;6.70;;;;;;;13.74;100.00;99102.06;31356630;28;20030;-90
2023/04/21 03:02:02;;;;;;;16.03;8.23;;;;;;;13.90;100.00;99098.94;31358248;28;20124;-90
2023/04/21 03:17:04;;;;;;;40.90;18.30;;;;;;;13.91;100.00;99110.63;31388348;28;20148;-91
2023/04/21 03:32:06;;;;;;;23.97;11.17;;;;;;;13.79;100.00;99104.16;31408401;28;20094;-92
2023/04/21 03:47:08;;;;;;;41.93;13.97;;;;;;;13.71;100.00;99118.59;31345967;28;20116;-87
2023/04/21 04:02:10;;;;;;;51.67;15.53;;;;;;;13.61;100.00;99124.13;31321646;28;20074;-91
2023/04/21 04:17:12;;;;;;;36.37;14.70;;;;;;;13.48;100.00;99126.28;31348588;28;20405;-93
2023/04/21 04:32:14;;;;;;;42.27;15.90;;;;;;;13.20;100.00;99125.66;31416366;28;20052;-87
2023/04/21 04:47:17;;;;;;;43.43;14.67;;;;;;;13.26;100.00;99121.06;31419649;28;20096;-88
2023/04/21 05:02:31;;;;;;;37.57;13.70;;;;;;;13.42;100.00;99119.97;31312220;28;20060;-88
2023/04/21 05:17:33;;;;;;;31.07;12.43;;;;;;;13.45;100.00;99126.47;31397047;28;20052;-88
2023/04/21 05:33:09;;;;;;;30.20;11.73;;;;;;;13.62;100.00;99122.91;31291005;28;20041;-85
2023/04/21 05:48:11;;;;;;;32.30;13.17;;;;;;;13.75;100.00;99130.09;31372372;28;20064;-85
2023/04/21 06:03:14;;;;;;;25.50;9.20;;;;;;;13.84;100.00;99117.16;31371793;28;20053;-87
2023/04/21 06:18:16;;;;;;;43.57;14.53;;;;;;;13.96;100.00;99124.34;31324320;28;20044;-86
2023/04/21 06:33:18;;;;;;;25.77;9.53;;;;;;;13.95;100.00;99124.81;31359747;28;20095;-85
2023/04/21 06:48:20;;;;;;;27.10;11.03;;;;;;;14.30;100.00;99127.78;31316547;28;20061;-86
2023/04/21 07:03:23;;;;;;;24.37;10.90;;;;;;;14.80;100.00;99117.81;31332990;28;20090;-82
2023/04/21 07:18:25;;;;;;;26.80;10.53;;;;;;;14.70;100.00;99127.31;31341206;28;20056;-84
2023/04/21 07:33:27;;;;;;;25.97;12.30;;;;;;;14.43;100.00;99122.84;31343663;28;20107;-85
2023/04/21 07:48:29;;;;;;;20.30;7.90;;;;;;;14.27;100.00;99131.44;31308517;28;20528;-82
2023/04/21 08:03:31;;;;;;;19.50;7.03;;;;;;;14.37;100.00;99135.63;31390077;28;20045;-80
2023/04/21 08:18:33;;;;;;;14.30;6.47;;;;;;;14.44;100.00;99139.97;31361139;28;20079;-81
2023/04/21 08:33:35;;;;;;;11.37;6.23;;;;;;;13.97;100.00;99130.56;31371617;28;20053;-78
2023/04/21 08:49:09;;;;;;;;;;;;;;;;;;;;;
2023/04/21 09:04:20;;;;;;;19.93;7.07;;;;;;;14.50;100.00;99136.13;31354714;28;20434;-82
2023/04/21 09:19:28;;;;;;;17.33;8.23;;;;;;;14.44;100.00;99127.06;31309363;28;20057;-80
2023/04/21 09:34:32;;;;;;;25.07;9.57;;;;;;;14.74;100.00;99130.59;31317837;28;20041;-81
2023/04/21 09:49:43;;;;;;;20.40;9.57;;;;;;;14.62;100.00;99132.41;31356284;28;20049;-81
2023/04/21 10:04:46;;;;;;;18.13;9.03;;;;;;;14.89;100.00;99136.06;31316715;28;20053;-79
2023/04/21 10:19:52;;;;;;;13.87;7.83;;;;;;;14.65;100.00;99127.94;31305847;28;20485;-81
2023/04/21 10:34:55;;;;;;;16.57;7.93;;;;;;;14.73;100.00;99125.63;31350537;28;20045;-79
2023/04/21 10:49:59;;;;;;;13.00;8.23;;;;;;;15.41;100.00;99126.25;31363271;28;20060;-78
2023/04/21 11:05:01;;;;;;;19.90;9.40;;;;;;;16.28;100.00;99119.00;31302435;28;20045;-81
2023/04/21 11:20:05;;;;;;;22.30;11.93;;;;;;;16.79;100.00;99116.78;31338970;28;20539;-77
2023/04/21 11:35:08;;;;;;;23.60;12.07;;;;;;;16.90;100.00;99122.38;31354366;28;20091;-78
2023/04/21 11:50:10;;;;;;;19.93;11.63;;;;;;;16.64;100.00;99122.38;31374891;28;20126;-78
2023/04/21 12:05:13;;;;;;;26.93;14.30;;;;;;;16.31;100.00;99133.69;31315838;28;20045;-79
2023/04/21 12:20:17;;;;;;;24.23;11.17;;;;;;;16.40;100.00;99125.31;31370314;28;20088;-77
2023/04/21 12:35:19;;;;;;;27.30;7.93;;;;;;;16.27;100.00;99133.16;31343987;28;20053;-79
2023/04/21 12:50:28;;;;;;;21.50;8.80;;;;;;;15.98;100.00;99117.63;31333338;28;20068;-79
2023/04/21 13:05:30;;;;;;;20.27;6.47;;;;;;;15.84;100.00;99126.63;31334482;28;20075;-80
2023/04/21 13:20:32;;;;;;;14.53;5.73;;;;;;;16.37;100.00;99115.34;31323130;28;20061;-80
2023/04/21 13:35:34;;;;;;;13.50;5.87;;;;;;;16.76;100.00;99109.53;31319465;28;20053;-79
2023/04/21 13:50:36;;;;;;;15.30;4.37;;;;;;;16.39;100.00;99112.88;31356987;28;20144;-79
2023/04/21 14:05:38;;;;;;;7.23;4.13;;;;;;;16.10;100.00;99118.50;31309697;28;20048;-78
2023/04/21 14:20:41;;;;;;;8.40;3.70;;;;;;;15.89;100.00;99139.63;31353831;28;20061;-79
2023/04/21 14:35:43;;;;;;;25.97;12.03;;;;;;;15.36;100.00;99152.25;31340940;28;20064;-79
2023/04/21 14:50:45;;;;;;;9.23;4.20;;;;;;;14.97;100.00;99159.06;31351178;28;20067;-77
2023/04/21 15:05:47;;;;;;;8.00;4.43;;;;;;;14.97;100.00;99159.06;31331573;28;20048;-82
2023/04/21 15:20:50;;;;;;;9.63;3.87;;;;;;;14.66;100.00;99156.78;31343124;28;20053;-81
2023/04/21 15:35:51;;;;;;;8.03;3.30;;;;;;;14.45;100.00;99166.81;31358021;28;20557;-79
2023/04/21 15:50:55;;;;;;;4.80;3.20;;;;;;;14.39;100.00;99176.84;31344638;28;20506;-82
2023/04/21 16:05:57;;;;;;;4.87;2.67;;;;;;;14.10;100.00;99180.22;31363432;28;20045;-81
2023/04/21 16:21:00;;;;;;;7.70;4.77;;;;;;;14.02;100.00;99178.28;31343277;28;20053;-81
2023/04/21 16:36:03;;;;;;;6.10;3.00;;;;;;;13.86;100.00;99190.34;31317379;28;20041;-80
2023/04/21 16:51:05;;;;;;;38.40;11.63;;;;;;;13.55;100.00;99187.91;31361091;28;20057;-79
2023/04/21 17:06:09;;;;;;;8.03;3.77;;;;;;;13.12;100.00;99192.53;31367018;28;20041;-84
2023/04/21 17:21:13;;;;;;;8.83;4.30;;;;;;;13.05;100.00;99201.03;31349474;28;20327;-81
2023/04/21 17:36:15;;;;;;;10.33;5.00;;;;;;;12.89;100.00;99215.72;31317603;28;20052;-80
2023/04/21 17:51:18;;;;;;;15.07;5.43;;;;;;;12.98;100.00;99218.47;31333933;28;20497;-79
2023/04/21 18:06:21;;;;;;;13.07;5.33;;;;;;;12.87;100.00;99222.84;31339293;28;20079;-79
2023/04/21 18:21:23;;;;;;;10.07;5.07;;;;;;;12.69;100.00;99223.59;31351219;28;20049;-79
2023/04/21 18:36:25;;;;;;;13.00;4.90;;;;;;;12.81;100.00;99219.19;31321734;28;20131;-85
2023/04/21 18:51:29;;;;;;;11.27;4.47;;;;;;;12.74;100.00;99208.63;31294678;28;20118;-87
2023/04/21 19:06:32;;;;;;;9.37;5.00;;;;;;;12.54;100.00;99214.50;31342834;28;20060;-89
2023/04/21 19:21:34;;;;;;;11.37;5.93;;;;;;;12.88;100.00;99208.00;31348966;28;20056;-86
2023/04/21 19:36:36;;;;;;;8.67;5.10;;;;;;;12.82;100.00;99213.31;31370110;28;20048;-88
2023/04/21 19:51:38;;;;;;;34.23;13.23;;;;;;;12.84;100.00;99196.50;31349097;28;20208;-88
2023/04/21 20:06:41;;;;;;;11.30;5.20;;;;;;;12.60;100.00;99193.63;31361173;28;20570;-86
2023/04/21 20:21:43;;;;;;;9.33;4.13;;;;;;;12.30;100.00;99204.19;31364545;28;20591;-86
2023/04/21 20:36:45;;;;;;;9.67;4.37;;;;;;;12.50;100.00;99205.75;31344577;28;20781;-82
2023/04/21 20:51:54;;;;;;;10.23;5.03;;;;;;;12.45;100.00;99204.38;31327603;28;20061;-86
2023/04/21 21:06:56;;;;;;;5.13;3.20;;;;;;;12.25;100.00;99217.66;31332168;28;20068;-86
2023/04/21 21:21:58;;;;;;;11.10;3.10;;;;;;;12.35;100.00;99221.88;31329684;28;20058;-86
2023/04/21 21:37:00;;;;;;;6.40;3.80;;;;;;;12.35;100.00;99232.03;31358427;28;20417;-86
2023/04/21 21:52:02;;;;;;;10.50;4.37;;;;;;;12.33;100.00;99251.53;31360670;28;20426;-88
2023/04/21 22:07:05;;;;;;;9.40;3.27;;;;;;;12.18;100.00;99259.50;31325500;28;20095;-85
2023/04/21 22:22:07;;;;;;;11.53;3.73;;;;;;;11.88;100.00;99252.91;31359754;28;20110;-86
2023/04/21 22:37:09;;;;;;;7.13;3.70;;;;;;;11.81;100.00;99261.31;31344083;28;20045;-89
2023/04/21 22:52:11;;;;;;;6.57;3.30;;;;;;;11.64;100.00;99273.59;31331521;28;20057;-88
2023/04/21 23:07:13;;;;;;;10.67;3.20;;;;;;;11.89;100.00;99265.28;31326459;28;20127;-86
2023/04/21 23:22:15;;;;;;;13.93;3.37;;;;;;;11.79;100.00;99266.47;31352458;28;20555;-85
2023/04/21 23:37:17;;;;;;;7.60;2.87;;;;;;;11.81;100.00;99272.19;31340327;28;20481;-87
2023/04/21 23:52:19;;;;;;;9.23;2.90;;;;;;;11.71;100.00;99278.78;31338967;28;20130;-87
